ADDS METAR Data INFO
IDs: Format: Raw Decoded Include TAF

Data at: 1714 UTC 23 Oct 2017

KBNW 231655Z AUTO 31015KT 10SM FEW041 SCT055 BKN065 13/07 A2988 RMK AO2
KBNW 231635Z AUTO 31015G25KT 6SM -DZ FEW039 SCT060 BKN110 13/06 A2989 RMK AO2
KBNW 231615Z AUTO 31012KT 10SM SCT110 16/05 A2987 RMK AO2
KBNW 231555Z AUTO 34014G20KT 10SM FEW110 15/05 A2985 RMK AO2
KBNW 231535Z AUTO 33011G20KT 10SM FEW110 15/06 A2987 RMK AO2
KBNW 231515Z AUTO 34015KT 10SM 14/05 A2986 RMK AO2
KBNW 231455Z AUTO 32013G21KT 13/05 A2987 RMK AO2 PWINO
KBNW 231435Z AUTO 31010KT 10SM FEW110 12/04 A2986 RMK AO2
KBNW 231415Z AUTO 29011KT 9SM SCT110 11/03 A2987 RMK AO2
KBNW 231355Z AUTO 28009KT 10SM CLR 10/03 A2986 RMK AO2
KBNW 231335Z AUTO 26007KT 10SM CLR 08/03 A2985 RMK AO2
KBNW 231315Z AUTO 27006KT 10SM CLR 08/03 A2985 RMK AO2
KBNW 231255Z AUTO 24007KT 10SM CLR 07/03 A2985 RMK AO2
KBNW 231235Z AUTO 24007KT 10SM CLR 08/03 A2985 RMK AO2
KBNW 231215Z AUTO 22007KT 180V240 10SM FEW035 08/03 A2984 RMK AO2
KBNW 231155Z AUTO 22006G12KT 10SM FEW033 09/03 A2983 RMK AO2
KBNW 231135Z AUTO 20006KT 10SM CLR 08/03 A2982 RMK AO2
KBNW 231115Z AUTO 20007KT 10SM CLR 08/03 A2984 RMK AO2
KBNW 231055Z AUTO 21007KT 10SM CLR 08/03 A2985 RMK AO2
KBNW 231035Z AUTO 20008KT 10SM CLR 08/03 A2985 RMK AO2
KBNW 231015Z AUTO 19008KT 10SM CLR 08/03 A2986 RMK AO2
KBNW 230955Z AUTO 19007KT 10SM CLR 08/03 A2987 RMK AO2
KBNW 230935Z AUTO 19008KT 10SM CLR 08/03 A2988 RMK AO2
KBNW 230915Z AUTO 20008KT 10SM CLR 08/04 A2988 RMK AO2
KBNW 230855Z AUTO 18007KT 10SM CLR 08/04 A2989 RMK AO2
KBNW 230835Z AUTO 19006KT 10SM CLR 08/04 A2990 RMK AO2
KBNW 230815Z AUTO 19007KT 10SM CLR 07/03 A2992 RMK AO2
KBNW 230755Z AUTO 19006KT 10SM CLR 07/03 A2992 RMK AO2
KBNW 230735Z AUTO 18007KT 10SM CLR 07/03 A2993 RMK AO2
KBNW 230715Z AUTO 19005KT 10SM CLR 08/03 A2993 RMK AO2
KBNW 230655Z AUTO 19007KT 10SM CLR 09/03 A2994 RMK AO2
KBNW 230635Z AUTO 20007KT 10SM CLR 10/03 A2994 RMK AO2
KBNW 230615Z AUTO 20006KT 10SM CLR 09/03 A2995 RMK AO2
KBNW 230555Z AUTO 20007KT 10SM CLR 09/03 A2995 RMK AO2
KBNW 230535Z AUTO 19006KT 10SM CLR 08/03 A2996 RMK AO2
KBNW 230515Z AUTO 18006KT 10SM CLR 07/04 A2996 RMK AO2
KBNW 230455Z AUTO 18005KT 10SM CLR 07/04 A2997 RMK AO2
KBNW 230435Z AUTO 17006KT 10SM CLR 07/04 A2997 RMK AO2
KBNW 230415Z AUTO 18005KT 10SM CLR 07/04 A2998 RMK AO2
KBNW 230355Z AUTO 18006KT 10SM CLR 08/04 A2999 RMK AO2
KBNW 230335Z AUTO 17008KT 10SM CLR 07/04 A2999 RMK AO2
KBNW 230315Z AUTO 16008KT 10SM CLR 07/04 A2999 RMK AO2
KBNW 230255Z AUTO 17006KT 10SM CLR 08/03 A3000 RMK AO2
KBNW 230235Z AUTO 16008KT 10SM CLR 08/02 A3000 RMK AO2
KBNW 230215Z AUTO 16006KT 10SM CLR 09/01 A3000 RMK AO2
KBNW 230155Z AUTO 18005KT 10SM CLR 10/00 A3000 RMK AO2
KBNW 230135Z AUTO 17005KT 10SM CLR 10/01 A3001 RMK AO2
KBNW 230115Z AUTO 18004KT 7SM CLR 10/01 A3001 RMK AO2
KBNW 230055Z AUTO 19004KT 10SM CLR 12/M00 A3002 RMK AO2
KBNW 230035Z AUTO 21004KT 10SM CLR 13/M01 A3002 RMK AO2
KBNW 230015Z AUTO 19005KT 5SM HZ CLR 14/M01 A3002 RMK AO2
KBNW 222355Z AUTO 19004KT 9SM CLR 15/M01 A3002 RMK AO2
KBNW 222335Z AUTO 19004KT 10SM CLR 16/M01 A3002 RMK AO2
KBNW 222315Z AUTO 00000KT 9SM CLR 17/M01 A3002 RMK AO2
KBNW 222255Z AUTO 00000KT 10SM CLR 17/M01 A3002 RMK AO2
KBNW 222235Z AUTO 25003KT 10SM CLR 18/M01 A3002 RMK AO2
KBNW 222215Z AUTO 25004KT 9SM CLR 18/M01 A3002 RMK AO2
KBNW 222155Z AUTO 31005KT 10SM CLR 18/00 A3002 RMK AO2
KBNW 222135Z AUTO 31007KT 10SM CLR 18/M01 A3002 RMK AO2
KBNW 222115Z AUTO 31009KT 9SM CLR 18/00 A3002 RMK AO2
KBNW 222055Z AUTO 32007KT 9SM CLR 18/00 A3002 RMK AO2
KBNW 222035Z AUTO 33009KT 10SM CLR 18/00 A3002 RMK AO2
KBNW 222015Z AUTO 29010KT 10SM CLR 18/01 A3003 RMK AO2
KBNW 221955Z AUTO 31010G15KT 10SM CLR 18/00 A3003 RMK AO2
KBNW 221935Z AUTO 27008G14KT 10SM CLR 18/01 A3004 RMK AO2
KBNW 221915Z AUTO 31008G14KT 9SM CLR 18/02 A3004 RMK AO2
KBNW 221855Z AUTO 30012KT 10SM CLR 17/02 A3004 RMK AO2
KBNW 221835Z AUTO 31008G15KT 270V330 10SM CLR 16/04 A3005 RMK AO2
KBNW 221815Z AUTO 29007G15KT 10SM CLR 16/04 A3005 RMK AO2
KBNW 221755Z AUTO 31011G16KT 10SM CLR 16/04 A3006 RMK AO2
KBNW 221735Z AUTO 30011G16KT 10SM CLR 15/03 A3006 RMK AO2
KBNW 221715Z AUTO 31011KT 10SM CLR 15/04 A3007 RMK AO2
KBNW 221655Z AUTO 29011KT 10SM CLR 15/04 A3007 RMK AO2
KBNW 221635Z AUTO 30011KT 10SM CLR 15/04 A3007 RMK AO2
KBNW 221615Z AUTO 30008KT 10SM CLR 14/06 A3007 RMK AO2
KBNW 221555Z AUTO 30009KT 10SM CLR 13/06 A3006 RMK AO2
KBNW 221535Z AUTO 30008KT 10SM CLR 12/06 A3006 RMK AO2
KBNW 221515Z AUTO 30008KT 10SM CLR 11/06 A3006 RMK AO2
KBNW 221455Z AUTO 30008KT 10SM CLR 09/05 A3006 RMK AO2
KBNW 221435Z AUTO 30008KT 10SM CLR 09/05 A3006 RMK AO2
KBNW 221415Z AUTO 30009KT 10SM CLR 09/05 A3005 RMK AO2
KBNW 221355Z AUTO 30010KT 10SM CLR 09/06 A3004 RMK AO2
KBNW 221335Z AUTO 30009KT 10SM CLR 09/06 A3003 RMK AO2
KBNW 221315Z AUTO 29008KT 10SM CLR 09/06 A3002 RMK AO2
KBNW 221255Z AUTO 30007KT 10SM CLR 09/06 A3001 RMK AO2
KBNW 221235Z AUTO 29007KT 10SM CLR 09/06 A3001 RMK AO2
KBNW 221215Z AUTO 29006KT 10SM CLR 09/06 A3001 RMK AO2
KBNW 221155Z AUTO 31005G10KT 10SM CLR 09/06 A3000 RMK AO2
KBNW 221135Z AUTO 31005KT 10SM CLR 09/06 A2999 RMK AO2
KBNW 221115Z AUTO 28007KT 10SM CLR 09/06 A3000 RMK AO2
KBNW 221055Z AUTO 29005KT 10SM CLR 10/07 A2999 RMK AO2
KBNW 221035Z AUTO 29005KT 10SM CLR 10/07 A2998 RMK AO2
KBNW 221015Z AUTO 29005KT 10SM FEW120 10/07 A2998 RMK AO2
KBNW 220955Z AUTO 29006KT 10SM BKN120 10/07 A2998 RMK AO2
KBNW 220935Z AUTO 31005KT 10SM BKN110 10/07 A2996 RMK AO2
KBNW 220915Z AUTO 30006KT 10SM SCT120 10/06 A2996 RMK AO2
KBNW 220855Z AUTO 29005KT 10SM FEW110 10/06 A2996 RMK AO2
KBNW 220835Z AUTO 30007KT 10SM FEW085 SCT110 10/06 A2995 RMK AO2
KBNW 220815Z AUTO 30006KT 10SM FEW075 BKN090 OVC110 10/06 A2996 RMK AO2
KBNW 220755Z AUTO 30008KT 10SM FEW080 OVC100 10/06 A2995 RMK AO2
KBNW 220735Z AUTO 31008KT 10SM FEW090 OVC110 10/07 A2994 RMK AO2
KBNW 220715Z AUTO 31007KT 10SM OVC110 10/06 A2995 RMK AO2
KBNW 220655Z AUTO 31007KT 10SM BKN120 10/06 A2994 RMK AO2
KBNW 220635Z AUTO 31008G13KT 10SM FEW100 BKN120 11/06 A2993 RMK AO2
KBNW 220615Z AUTO 31011G16KT 10SM BKN110 11/06 A2993 RMK AO2
KBNW 220555Z AUTO 32010KT 10SM OVC110 11/06 A2991 RMK AO2
KBNW 220535Z AUTO 31009G15KT 10SM FEW095 OVC110 11/07 A2992 RMK AO2
KBNW 220515Z AUTO 30009G17KT 10SM BKN110 11/07 A2993 RMK AO2